sensor_id;sensor_type;location;lat;lon;timestamp;pressure;altitude;pressure_sealevel;temperature;humidity
80308;BME280;69616;43.522;1.348;2024-01-10T00:01:34;100396.47;;;-0.60;67.34
80308;BME280;69616;43.522;1.348;2024-01-10T00:04:00;100393.81;;;-0.62;67.22
80308;BME280;69616;43.522;1.348;2024-01-10T00:06:25;100387.78;;;-0.62;67.01
80308;BME280;69616;43.522;1.348;2024-01-10T00:08:50;100380.00;;;-0.62;67.26
80308;BME280;69616;43.522;1.348;2024-01-10T00:11:16;100379.88;;;-0.65;67.29
80308;BME280;69616;43.522;1.348;2024-01-10T00:13:42;100377.91;;;-0.71;67.74
80308;BME280;69616;43.522;1.348;2024-01-10T00:16:07;100373.56;;;-0.72;67.26
80308;BME280;69616;43.522;1.348;2024-01-10T00:18:33;100364.91;;;-0.73;67.64
80308;BME280;69616;43.522;1.348;2024-01-10T00:20:59;100367.44;;;-0.74;67.60
80308;BME280;69616;43.522;1.348;2024-01-10T00:23:24;100354.44;;;-0.76;67.62
80308;BME280;69616;43.522;1.348;2024-01-10T00:25:49;100361.31;;;-0.76;67.38
80308;BME280;69616;43.522;1.348;2024-01-10T00:28:15;100357.78;;;-0.78;67.63
80308;BME280;69616;43.522;1.348;2024-01-10T00:30:46;100358.66;;;-0.78;67.77
80308;BME280;69616;43.522;1.348;2024-01-10T00:33:15;100355.19;;;-0.78;67.44
80308;BME280;69616;43.522;1.348;2024-01-10T00:35:41;100351.66;;;-0.80;67.53
80308;BME280;69616;43.522;1.348;2024-01-10T00:38:06;100347.09;;;-0.86;68.04
80308;BME280;69616;43.522;1.348;2024-01-10T00:40:32;100359.09;;;-0.88;68.21
80308;BME280;69616;43.522;1.348;2024-01-10T00:42:57;100353.00;;;-0.89;67.63
80308;BME280;69616;43.522;1.348;2024-01-10T00:45:22;100354.66;;;-0.91;67.84
80308;BME280;69616;43.522;1.348;2024-01-10T00:47:48;100355.47;;;-0.92;68.01
80308;BME280;69616;43.522;1.348;2024-01-10T00:50:14;100360.72;;;-0.90;67.74
80308;BME280;69616;43.522;1.348;2024-01-10T00:52:40;100350.28;;;-0.92;67.82
80308;BME280;69616;43.522;1.348;2024-01-10T00:55:05;100356.38;;;-0.91;67.75
80308;BME280;69616;43.522;1.348;2024-01-10T00:57:31;100360.63;;;-0.92;67.94
80308;BME280;69616;43.522;1.348;2024-01-10T00:59:56;100354.59;;;-0.92;68.15
80308;BME280;69616;43.522;1.348;2024-01-10T01:02:22;100359.00;;;-0.90;68.18
80308;BME280;69616;43.522;1.348;2024-01-10T01:04:47;100355.59;;;-0.89;68.11
80308;BME280;69616;43.522;1.348;2024-01-10T01:07:12;100353.00;;;-0.89;67.79
80308;BME280;69616;43.522;1.348;2024-01-10T01:09:38;100352.00;;;-0.92;68.33
80308;BME280;69616;43.522;1.348;2024-01-10T01:12:03;100344.31;;;-0.91;67.97
80308;BME280;69616;43.522;1.348;2024-01-10T01:14:29;100348.63;;;-0.91;67.93
80308;BME280;69616;43.522;1.348;2024-01-10T01:16:54;100340.91;;;-0.90;67.90
80308;BME280;69616;43.522;1.348;2024-01-10T01:19:20;100339.13;;;-0.91;67.92
80308;BME280;69616;43.522;1.348;2024-01-10T01:21:45;100341.72;;;-0.91;67.89
80308;BME280;69616;43.522;1.348;2024-01-10T01:24:10;100340.78;;;-0.93;67.99
80308;BME280;69616;43.522;1.348;2024-01-10T01:26:37;100345.81;;;-0.96;68.13
80308;BME280;69616;43.522;1.348;2024-01-10T01:29:02;100344.03;;;-0.97;68.44
80308;BME280;69616;43.522;1.348;2024-01-10T01:31:27;100332.06;;;-0.95;68.31
80308;BME280;69616;43.522;1.348;2024-01-10T01:33:53;100338.88;;;-0.97;68.35
80308;BME280;69616;43.522;1.348;2024-01-10T01:36:18;100333.72;;;-0.97;68.27
80308;BME280;69616;43.522;1.348;2024-01-10T01:38:44;100338.88;;;-0.97;68.25
80308;BME280;69616;43.522;1.348;2024-01-10T01:41:09;100340.50;;;-0.99;68.63
80308;BME280;69616;43.522;1.348;2024-01-10T01:43:35;100331.56;;;-1.07;68.62
80308;BME280;69616;43.522;1.348;2024-01-10T01:46:00;100329.78;;;-1.08;69.06
80308;BME280;69616;43.522;1.348;2024-01-10T01:48:27;100322.91;;;-1.08;68.56
80308;BME280;69616;43.522;1.348;2024-01-10T01:50:57;100328.19;;;-1.05;68.99
80308;BME280;69616;43.522;1.348;2024-01-10T01:53:23;100320.56;;;-1.02;68.69
80308;BME280;69616;43.522;1.348;2024-01-10T01:55:50;100326.50;;;-1.04;68.62
80308;BME280;69616;43.522;1.348;2024-01-10T01:58:15;100322.97;;;-1.06;68.65
80308;BME280;69616;43.522;1.348;2024-01-10T02:00:41;100323.03;;;-1.05;68.92
80308;BME280;69616;43.522;1.348;2024-01-10T02:03:09;100323.09;;;-1.03;68.44
80308;BME280;69616;43.522;1.348;2024-01-10T02:05:35;100314.53;;;-1.02;68.70
80308;BME280;69616;43.522;1.348;2024-01-10T02:08:01;100321.47;;;-1.01;68.58
80308;BME280;69616;43.522;1.348;2024-01-10T02:10:27;100314.66;;;-0.99;68.76
80308;BME280;69616;43.522;1.348;2024-01-10T02:12:53;100320.69;;;-0.98;68.96
80308;BME280;69616;43.522;1.348;2024-01-10T02:15:18;100319.84;;;-0.99;68.77
80308;BME280;69616;43.522;1.348;2024-01-10T02:17:44;100322.47;;;-0.97;68.71
80308;BME280;69616;43.522;1.348;2024-01-10T02:20:14;100321.72;;;-0.95;68.70
80308;BME280;69616;43.522;1.348;2024-01-10T02:22:42;100334.88;;;-0.90;69.18
80308;BME280;69616;43.522;1.348;2024-01-10T02:25:09;100320.31;;;-0.88;68.64
80308;BME280;69616;43.522;1.348;2024-01-10T02:27:36;100329.81;;;-0.87;69.11
80308;BME280;69616;43.522;1.348;2024-01-10T02:30:03;100328.94;;;-0.88;69.07
80308;BME280;69616;43.522;1.348;2024-01-10T02:32:29;100335.72;;;-0.90;69.43
80308;BME280;69616;43.522;1.348;2024-01-10T02:34:54;100333.97;;;-0.91;69.60
80308;BME280;69616;43.522;1.348;2024-01-10T02:37:20;100326.22;;;-0.91;69.50
80308;BME280;69616;43.522;1.348;2024-01-10T02:39:45;100317.63;;;-0.90;69.63
80308;BME280;69616;43.522;1.348;2024-01-10T02:42:11;100312.53;;;-0.88;69.54
80308;BME280;69616;43.522;1.348;2024-01-10T02:44:36;100308.25;;;-0.88;69.25
80308;BME280;69616;43.522;1.348;2024-01-10T02:47:02;100310.00;;;-0.87;69.56
80308;BME280;69616;43.522;1.348;2024-01-10T02:49:27;100311.78;;;-0.85;69.56
80308;BME280;69616;43.522;1.348;2024-01-10T02:51:52;100313.63;;;-0.83;69.75
80308;BME280;69616;43.522;1.348;2024-01-10T02:54:18;100311.97;;;-0.81;69.64
80308;BME280;69616;43.522;1.348;2024-01-10T02:56:43;100306.88;;;-0.79;69.43
80308;BME280;69616;43.522;1.348;2024-01-10T02:59:08;100302.53;;;-0.80;69.88
80308;BME280;69616;43.522;1.348;2024-01-10T03:01:34;100301.72;;;-0.79;69.83
80308;BME280;69616;43.522;1.348;2024-01-10T03:03:59;100299.13;;;-0.79;70.18
80308;BME280;69616;43.522;1.348;2024-01-10T03:06:24;100290.47;;;-0.80;69.45
80308;BME280;69616;43.522;1.348;2024-01-10T03:08:51;100297.38;;;-0.80;70.22
80308;BME280;69616;43.522;1.348;2024-01-10T03:11:16;100296.53;;;-0.79;69.90
80308;BME280;69616;43.522;1.348;2024-01-10T03:13:44;100295.66;;;-0.80;69.72
80308;BME280;69616;43.522;1.348;2024-01-10T03:16:11;100281.72;;;-0.83;70.12
80308;BME280;69616;43.522;1.348;2024-01-10T03:18:36;100284.31;;;-0.83;70.08
80308;BME280;69616;43.522;1.348;2024-01-10T03:21:01;100280.75;;;-0.85;69.93
80308;BME280;69616;43.522;1.348;2024-01-10T03:23:27;100283.34;;;-0.85;70.35
80308;BME280;69616;43.522;1.348;2024-01-10T03:25:52;100292.84;;;-0.84;70.54
80308;BME280;69616;43.522;1.348;2024-01-10T03:28:18;100287.84;;;-0.81;70.50
80308;BME280;69616;43.522;1.348;2024-01-10T03:30:44;100287.88;;;-0.80;69.95
80308;BME280;69616;43.522;1.348;2024-01-10T03:33:12;100287.97;;;-0.78;69.80
80308;BME280;69616;43.522;1.348;2024-01-10T03:35:37;100287.16;;;-0.77;69.92
80308;BME280;69616;43.522;1.348;2024-01-10T03:38:03;100282.97;;;-0.74;70.40
80308;BME280;69616;43.522;1.348;2024-01-10T03:40:29;100282.03;;;-0.76;70.23
80308;BME280;69616;43.522;1.348;2024-01-10T03:42:54;100279.53;;;-0.74;70.33
80308;BME280;69616;43.522;1.348;2024-01-10T03:45:20;100278.69;;;-0.73;70.44
80308;BME280;69616;43.522;1.348;2024-01-10T03:47:48;100283.06;;;-0.72;70.48
80308;BME280;69616;43.522;1.348;2024-01-10T03:50:18;100283.16;;;-0.69;70.45
80308;BME280;69616;43.522;1.348;2024-01-10T03:52:44;100284.94;;;-0.68;70.35
80308;BME280;69616;43.522;1.348;2024-01-10T03:55:10;100288.47;;;-0.66;70.52
80308;BME280;69616;43.522;1.348;2024-01-10T03:57:36;100292.81;;;-0.65;70.33
80308;BME280;69616;43.522;1.348;2024-01-10T04:00:01;100286.81;;;-0.64;70.05
80308;BME280;69616;43.522;1.348;2024-01-10T04:02:26;100293.84;;;-0.61;69.98
80308;BME280;69616;43.522;1.348;2024-01-10T04:04:53;100297.28;;;-0.61;70.19
80308;BME280;69616;43.522;1.348;2024-01-10T04:07:18;100302.47;;;-0.61;70.11
80308;BME280;69616;43.522;1.348;2024-01-10T04:09:44;100293.91;;;-0.60;70.27
80308;BME280;69616;43.522;1.348;2024-01-10T04:12:10;100289.69;;;-0.57;70.15
80308;BME280;69616;43.522;1.348;2024-01-10T04:14:35;100283.69;;;-0.56;70.52
80308;BME280;69616;43.522;1.348;2024-01-10T04:17:00;100281.94;;;-0.57;70.61
80308;BME280;69616;43.522;1.348;2024-01-10T04:19:26;100275.88;;;-0.58;70.13
80308;BME280;69616;43.522;1.348;2024-01-10T04:21:52;100284.53;;;-0.57;70.61
80308;BME280;69616;43.522;1.348;2024-01-10T04:24:17;100287.94;;;-0.59;70.29
80308;BME280;69616;43.522;1.348;2024-01-10T04:26:42;100292.28;;;-0.57;70.46
80308;BME280;69616;43.522;1.348;2024-01-10T04:29:08;100281.94;;;-0.57;70.58
80308;BME280;69616;43.522;1.348;2024-01-10T04:31:33;100279.19;;;-0.61;70.63
80308;BME280;69616;43.522;1.348;2024-01-10T04:34:01;100267.91;;;-0.63;70.47
80308;BME280;69616;43.522;1.348;2024-01-10T04:36:26;100270.56;;;-0.61;70.83
80308;BME280;69616;43.522;1.348;2024-01-10T04:38:51;100275.66;;;-0.63;71.15
80308;BME280;69616;43.522;1.348;2024-01-10T04:41:17;100279.16;;;-0.62;70.63
80308;BME280;69616;43.522;1.348;2024-01-10T04:43:42;100288.66;;;-0.61;70.72
80308;BME280;69616;43.522;1.348;2024-01-10T04:46:08;100286.09;;;-0.61;70.87
80308;BME280;69616;43.522;1.348;2024-01-10T04:48:35;100289.63;;;-0.59;70.81
80308;BME280;69616;43.522;1.348;2024-01-10T04:51:01;100275.75;;;-0.61;70.51
80308;BME280;69616;43.522;1.348;2024-01-10T04:53:26;100286.09;;;-0.61;70.95
80308;BME280;69616;43.522;1.348;2024-01-10T04:55:52;100289.53;;;-0.61;71.01
80308;BME280;69616;43.522;1.348;2024-01-10T04:58:17;100285.19;;;-0.62;70.64
80308;BME280;69616;43.522;1.348;2024-01-10T05:00:42;100285.19;;;-0.62;71.15
80308;BME280;69616;43.522;1.348;2024-01-10T05:03:08;100279.28;;;-0.59;70.69
80308;BME280;69616;43.522;1.348;2024-01-10T05:05:33;100276.75;;;-0.57;71.33
80308;BME280;69616;43.522;1.348;2024-01-10T05:07:59;100270.75;;;-0.56;70.75
80308;BME280;69616;43.522;1.348;2024-01-10T05:10:26;100265.63;;;-0.55;71.12
80308;BME280;69616;43.522;1.348;2024-01-10T05:12:51;100264.81;;;-0.54;71.02
80308;BME280;69616;43.522;1.348;2024-01-10T05:15:17;100261.47;;;-0.51;70.99
80308;BME280;69616;43.522;1.348;2024-01-10T05:17:42;100265.00;;;-0.49;70.95
80308;BME280;69616;43.522;1.348;2024-01-10T05:20:08;100265.00;;;-0.49;70.60
80308;BME280;69616;43.522;1.348;2024-01-10T05:22:34;100271.94;;;-0.48;71.10
80308;BME280;69616;43.522;1.348;2024-01-10T05:25:00;100269.44;;;-0.47;70.92
80308;BME280;69616;43.522;1.348;2024-01-10T05:27:26;100269.44;;;-0.47;71.14
80308;BME280;69616;43.522;1.348;2024-01-10T05:29:52;100272.97;;;-0.45;71.02
80308;BME280;69616;43.522;1.348;2024-01-10T05:32:17;100269.56;;;-0.44;71.20
80308;BME280;69616;43.522;1.348;2024-01-10T05:34:44;100268.66;;;-0.44;71.27
80308;BME280;69616;43.522;1.348;2024-01-10T05:37:10;100274.75;;;-0.44;71.14
80308;BME280;69616;43.522;1.348;2024-01-10T05:39:35;100274.78;;;-0.42;71.41
80308;BME280;69616;43.522;1.348;2024-01-10T05:42:00;100287.72;;;-0.42;71.02
80308;BME280;69616;43.522;1.348;2024-01-10T05:44:28;100282.53;;;-0.42;71.27
80308;BME280;69616;43.522;1.348;2024-01-10T05:46:53;100283.47;;;-0.40;71.50
80308;BME280;69616;43.522;1.348;2024-01-10T05:49:18;100293.09;;;-0.37;71.19
80308;BME280;69616;43.522;1.348;2024-01-10T05:51:44;100293.16;;;-0.36;71.37
80308;BME280;69616;43.522;1.348;2024-01-10T05:54:09;100300.09;;;-0.35;71.57
80308;BME280;69616;43.522;1.348;2024-01-10T05:56:35;100299.28;;;-0.34;71.37
80308;BME280;69616;43.522;1.348;2024-01-10T05:59:00;100292.38;;;-0.33;71.57
80308;BME280;69616;43.522;1.348;2024-01-10T06:01:26;100292.34;;;-0.35;71.03
80308;BME280;69616;43.522;1.348;2024-01-10T06:03:52;100293.22;;;-0.34;71.24
80308;BME280;69616;43.522;1.348;2024-01-10T06:06:17;100290.69;;;-0.33;71.43
80308;BME280;69616;43.522;1.348;2024-01-10T06:08:42;100285.53;;;-0.33;71.38
80308;BME280;69616;43.522;1.348;2024-01-10T06:11:08;100292.38;;;-0.33;71.20
80308;BME280;69616;43.522;1.348;2024-01-10T06:13:35;100296.81;;;-0.31;71.45
80308;BME280;69616;43.522;1.348;2024-01-10T06:16:02;100296.00;;;-0.30;71.53
80308;BME280;69616;43.522;1.348;2024-01-10T06:18:27;100295.22;;;-0.27;70.93
80308;BME280;69616;43.522;1.348;2024-01-10T06:20:53;100292.63;;;-0.27;71.30
80308;BME280;69616;43.522;1.348;2024-01-10T06:23:18;100286.59;;;-0.27;71.09
80308;BME280;69616;43.522;1.348;2024-01-10T06:25:44;100289.16;;;-0.27;71.02
80308;BME280;69616;43.522;1.348;2024-01-10T06:28:09;100280.59;;;-0.26;71.23
80308;BME280;69616;43.522;1.348;2024-01-10T06:30:34;100283.16;;;-0.26;71.30
80308;BME280;69616;43.522;1.348;2024-01-10T06:33:00;100284.03;;;-0.26;71.36
80308;BME280;69616;43.522;1.348;2024-01-10T06:35:26;100280.63;;;-0.25;71.53
80308;BME280;69616;43.522;1.348;2024-01-10T06:37:51;100279.75;;;-0.25;71.68
80308;BME280;69616;43.522;1.348;2024-01-10T06:40:17;100282.34;;;-0.25;71.77
80308;BME280;69616;43.522;1.348;2024-01-10T06:42:43;100280.63;;;-0.25;71.29
80308;BME280;69616;43.522;1.348;2024-01-10T06:45:09;100286.69;;;-0.24;71.58
80308;BME280;69616;43.522;1.348;2024-01-10T06:47:34;100287.63;;;-0.22;71.38
80308;BME280;69616;43.522;1.348;2024-01-10T06:50:00;100283.28;;;-0.23;71.67
80308;BME280;69616;43.522;1.348;2024-01-10T06:52:26;100281.53;;;-0.24;71.41
80308;BME280;69616;43.522;1.348;2024-01-10T06:54:52;100289.28;;;-0.24;71.75
80308;BME280;69616;43.522;1.348;2024-01-10T06:57:17;100291.94;;;-0.23;71.48
80308;BME280;69616;43.522;1.348;2024-01-10T06:59:43;100290.22;;;-0.22;71.35
80308;BME280;69616;43.522;1.348;2024-01-10T07:02:08;100287.63;;;-0.22;71.60
80308;BME280;69616;43.522;1.348;2024-01-10T07:04:37;100283.28;;;-0.23;71.94
80308;BME280;69616;43.522;1.348;2024-01-10T07:07:03;100279.75;;;-0.25;72.22
80308;BME280;69616;43.522;1.348;2024-01-10T07:09:29;100266.75;;;-0.27;72.10
80308;BME280;69616;43.522;1.348;2024-01-10T07:11:54;100269.34;;;-0.27;72.08
80308;BME280;69616;43.522;1.348;2024-01-10T07:14:20;100272.81;;;-0.26;72.23
80308;BME280;69616;43.522;1.348;2024-01-10T07:16:45;100270.16;;;-0.28;72.22
80308;BME280;69616;43.522;1.348;2024-01-10T07:19:14;100272.81;;;-0.26;71.91
80308;BME280;69616;43.522;1.348;2024-01-10T07:21:42;100281.53;;;-0.24;72.19
80308;BME280;69616;43.522;1.348;2024-01-10T07:24:08;100285.88;;;-0.23;72.05
80308;BME280;69616;43.522;1.348;2024-01-10T07:26:37;100274.72;;;-0.22;71.81
80308;BME280;69616;43.522;1.348;2024-01-10T07:29:03;100274.72;;;-0.22;72.18
80308;BME280;69616;43.522;1.348;2024-01-10T07:31:29;100268.66;;;-0.23;71.69
80308;BME280;69616;43.522;1.348;2024-01-10T07:33:56;100267.75;;;-0.23;71.62
80308;BME280;69616;43.522;1.348;2024-01-10T07:36:25;100268.59;;;-0.24;71.92
80308;BME280;69616;43.522;1.348;2024-01-10T07:38:52;100271.16;;;-0.24;72.34
80308;BME280;69616;43.522;1.348;2024-01-10T07:41:18;100266.00;;;-0.24;71.57
80308;BME280;69616;43.522;1.348;2024-01-10T07:43:43;100268.59;;;-0.24;71.55
80308;BME280;69616;43.522;1.348;2024-01-10T07:46:09;100269.53;;;-0.22;71.49
80308;BME280;69616;43.522;1.348;2024-01-10T07:48:34;100273.00;;;-0.22;71.96
80308;BME280;69616;43.522;1.348;2024-01-10T07:51:01;100273.88;;;-0.21;71.73
80308;BME280;69616;43.522;1.348;2024-01-10T07:53:26;100267.88;;;-0.20;71.61
80308;BME280;69616;43.522;1.348;2024-01-10T07:55:52;100269.66;;;-0.19;71.47
80308;BME280;69616;43.522;1.348;2024-01-10T07:58:17;100263.66;;;-0.18;71.70
80308;BME280;69616;43.522;1.348;2024-01-10T08:00:43;100254.19;;;-0.18;71.94
80308;BME280;69616;43.522;1.348;2024-01-10T08:03:08;100262.06;;;-0.15;71.62
80308;BME280;69616;43.522;1.348;2024-01-10T08:05:35;100266.50;;;-0.12;71.71
80308;BME280;69616;43.522;1.348;2024-01-10T08:08:00;100270.06;;;-0.08;71.64
80308;BME280;69616;43.522;1.348;2024-01-10T08:10:26;100263.31;;;-0.05;71.76
80308;BME280;69616;43.522;1.348;2024-01-10T08:12:52;100266.09;;;0.00;71.48
80308;BME280;69616;43.522;1.348;2024-01-10T08:15:18;100267.97;;;0.04;71.21
80308;BME280;69616;43.522;1.348;2024-01-10T08:17:45;100267.31;;;0.10;71.55
80308;BME280;69616;43.522;1.348;2024-01-10T08:20:10;100273.50;;;0.13;71.12
80308;BME280;69616;43.522;1.348;2024-01-10T08:22:36;100270.06;;;0.14;71.51
80308;BME280;69616;43.522;1.348;2024-01-10T08:25:02;100278.84;;;0.18;71.28
80308;BME280;69616;43.522;1.348;2024-01-10T08:27:28;100278.84;;;0.18;71.34
80308;BME280;69616;43.522;1.348;2024-01-10T08:29:53;100287.59;;;0.22;71.30
80308;BME280;69616;43.522;1.348;2024-01-10T08:32:19;100292.78;;;0.22;71.52
80308;BME280;69616;43.522;1.348;2024-01-10T08:34:47;100290.28;;;0.23;71.70
80308;BME280;69616;43.522;1.348;2024-01-10T08:37:12;100286.97;;;0.27;71.84
80308;BME280;69616;43.522;1.348;2024-01-10T08:39:38;100280.97;;;0.28;71.24
80308;BME280;69616;43.522;1.348;2024-01-10T08:42:03;100281.91;;;0.31;71.67
80308;BME280;69616;43.522;1.348;2024-01-10T08:44:29;100274.25;;;0.34;71.77
80308;BME280;69616;43.522;1.348;2024-01-10T08:46:54;100276.16;;;0.38;71.40
80308;BME280;69616;43.522;1.348;2024-01-10T08:49:20;100280.63;;;0.42;71.95
80308;BME280;69616;43.522;1.348;2024-01-10T08:51:45;100276.47;;;0.47;71.67
80308;BME280;69616;43.522;1.348;2024-01-10T08:54:12;100276.66;;;0.52;71.03
80308;BME280;69616;43.522;1.348;2024-01-10T08:56:42;100275.09;;;0.57;71.53
80308;BME280;69616;43.522;1.348;2024-01-10T08:59:10;100281.41;;;0.64;70.81
80308;BME280;69616;43.522;1.348;2024-01-10T09:01:36;100287.63;;;0.69;71.19
80308;BME280;69616;43.522;1.348;2024-01-10T09:04:04;100273.94;;;0.73;71.64
80308;BME280;69616;43.522;1.348;2024-01-10T09:06:30;100285.47;;;0.81;71.04
80308;BME280;69616;43.522;1.348;2024-01-10T09:08:56;100291.00;;;0.91;70.86
80308;BME280;69616;43.522;1.348;2024-01-10T09:11:22;100293.91;;;1.00;70.91
80308;BME280;69616;43.522;1.348;2024-01-10T09:13:47;100289.09;;;1.11;70.31
80308;BME280;69616;43.522;1.348;2024-01-10T09:16:12;100297.19;;;1.20;70.46
80308;BME280;69616;43.522;1.348;2024-01-10T09:18:38;100297.34;;;1.25;70.62
80308;BME280;69616;43.522;1.348;2024-01-10T09:21:05;100303.56;;;1.30;70.48
80308;BME280;69616;43.522;1.348;2024-01-10T09:23:30;100307.16;;;1.34;70.51
80308;BME280;69616;43.522;1.348;2024-01-10T09:25:56;100294.25;;;1.35;70.77
80308;BME280;69616;43.522;1.348;2024-01-10T09:28:21;100302.97;;;1.37;70.89
80308;BME280;69616;43.522;1.348;2024-01-10T09:30:47;100299.53;;;1.38;70.40
80308;BME280;69616;43.522;1.348;2024-01-10T09:33:12;100306.50;;;1.39;69.96
80308;BME280;69616;43.522;1.348;2024-01-10T09:35:38;100304.00;;;1.42;70.12
80308;BME280;69616;43.522;1.348;2024-01-10T09:38:03;100304.94;;;1.45;70.12
80308;BME280;69616;43.522;1.348;2024-01-10T09:40:29;100292.03;;;1.46;70.20
80308;BME280;69616;43.522;1.348;2024-01-10T09:42:55;100293.81;;;1.49;70.35
80308;BME280;69616;43.522;1.348;2024-01-10T09:45:21;100290.56;;;1.54;70.17
80308;BME280;69616;43.522;1.348;2024-01-10T09:47:51;100295.00;;;1.58;70.41
80308;BME280;69616;43.522;1.348;2024-01-10T09:50:17;100299.53;;;1.64;70.16
80308;BME280;69616;43.522;1.348;2024-01-10T09:52:53;100300.47;;;1.66;70.24
80308;BME280;69616;43.522;1.348;2024-01-10T09:55:23;100294.53;;;1.70;69.81
80308;BME280;69616;43.522;1.348;2024-01-10T09:57:48;100295.56;;;1.76;70.23
80308;BME280;69616;43.522;1.348;2024-01-10T10:00:15;100295.72;;;1.80;69.80
80308;BME280;69616;43.522;1.348;2024-01-10T10:02:41;100291.59;;;1.87;69.93
80308;BME280;69616;43.522;1.348;2024-01-10T10:05:17;100291.72;;;1.92;69.98
80308;BME280;69616;43.522;1.348;2024-01-10T10:07:52;100284.94;;;1.95;69.83
80308;BME280;69616;43.522;1.348;2024-01-10T10:10:21;100289.38;;;1.99;69.77
80308;BME280;69616;43.522;1.348;2024-01-10T10:12:47;100284.28;;;2.03;70.11
80308;BME280;69616;43.522;1.348;2024-01-10T10:15:14;100282.59;;;2.05;69.88
80308;BME280;69616;43.522;1.348;2024-01-10T10:17:41;100282.72;;;2.08;69.71
80308;BME280;69616;43.522;1.348;2024-01-10T10:20:14;100282.91;;;2.14;70.06
80308;BME280;69616;43.522;1.348;2024-01-10T10:23:07;100280.56;;;2.23;69.98
80308;BME280;69616;43.522;1.348;2024-01-10T10:25:46;100285.22;;;2.34;69.66
80308;BME280;69616;43.522;1.348;2024-01-10T10:28:12;100282.84;;;2.41;69.19
80308;BME280;69616;43.522;1.348;2024-01-10T10:30:38;100273.59;;;2.51;69.49
80308;BME280;69616;43.522;1.348;2024-01-10T10:33:05;100262.56;;;2.60;69.13
80308;BME280;69616;43.522;1.348;2024-01-10T10:35:33;100258.50;;;2.68;69.27
80308;BME280;69616;43.522;1.348;2024-01-10T10:37:59;100258.59;;;2.73;69.26
80308;BME280;69616;43.522;1.348;2024-01-10T10:40:25;100256.91;;;2.75;68.66
80308;BME280;69616;43.522;1.348;2024-01-10T10:42:55;100254.44;;;2.78;68.69
80308;BME280;69616;43.522;1.348;2024-01-10T10:45:22;100253.66;;;2.82;68.84
80308;BME280;69616;43.522;1.348;2024-01-10T10:50:22;100237.59;;;2.99;68.57
80308;BME280;69616;43.522;1.348;2024-01-10T10:52:50;100246.59;;;3.10;68.23
80308;BME280;69616;43.522;1.348;2024-01-10T10:55:16;100251.09;;;3.18;68.47
80308;BME280;69616;43.522;1.348;2024-01-10T10:57:47;100241.69;;;3.23;68.39
80308;BME280;69616;43.522;1.348;2024-01-10T11:00:18;100249.59;;;3.26;68.49
80308;BME280;69616;43.522;1.348;2024-01-10T11:02:44;100259.19;;;3.28;68.41
80308;BME280;69616;43.522;1.348;2024-01-10T11:05:10;100253.13;;;3.29;68.42
80308;BME280;69616;43.522;1.348;2024-01-10T11:07:40;100248.78;;;3.28;68.44
80308;BME280;69616;43.522;1.348;2024-01-10T11:10:11;100252.19;;;3.26;68.72
80308;BME280;69616;43.522;1.348;2024-01-10T11:23:47;100227.34;;;3.04;68.99
80308;BME280;69616;43.522;1.348;2024-01-10T11:26:15;100245.53;;;3.02;68.98
80308;BME280;69616;43.522;1.348;2024-01-10T11:28:41;100247.16;;;3.00;69.62
80308;BME280;69616;43.522;1.348;2024-01-10T11:31:07;100245.38;;;2.97;69.37
80308;BME280;69616;43.522;1.348;2024-01-10T11:33:39;100245.34;;;2.96;69.65
80308;BME280;69616;43.522;1.348;2024-01-10T11:38:41;100255.75;;;2.96;69.39
80308;BME280;69616;43.522;1.348;2024-01-10T11:41:10;100247.09;;;2.97;69.18
80308;BME280;69616;43.522;1.348;2024-01-10T11:43:35;100249.75;;;2.98;69.59
80308;BME280;69616;43.522;1.348;2024-01-10T11:46:02;100244.56;;;2.98;69.55
80308;BME280;69616;43.522;1.348;2024-01-10T11:48:31;100241.97;;;3.00;69.35
80308;BME280;69616;43.522;1.348;2024-01-10T11:50:57;100242.03;;;3.01;69.44
80308;BME280;69616;43.522;1.348;2024-01-10T11:53:42;100242.94;;;3.04;69.50
80308;BME280;69616;43.522;1.348;2024-01-10T11:56:15;100246.47;;;3.06;69.80
80308;BME280;69616;43.522;1.348;2024-01-10T11:59:03;100249.13;;;3.07;69.35
80308;BME280;69616;43.522;1.348;2024-01-10T12:01:34;100246.47;;;3.06;69.33
80308;BME280;69616;43.522;1.348;2024-01-10T12:04:02;100233.44;;;3.04;69.22
80308;BME280;69616;43.522;1.348;2024-01-10T12:06:29;100231.66;;;3.03;69.41
80308;BME280;69616;43.522;1.348;2024-01-10T12:08:55;100230.81;;;3.04;69.30
80308;BME280;69616;43.522;1.348;2024-01-10T12:11:20;100230.00;;;3.05;69.67
80308;BME280;69616;43.522;1.348;2024-01-10T12:13:47;100234.34;;;3.06;69.80
80308;BME280;69616;43.522;1.348;2024-01-10T12:16:13;100239.56;;;3.06;69.98
80308;BME280;69616;43.522;1.348;2024-01-10T12:18:43;100249.13;;;3.07;69.42
80308;BME280;69616;43.522;1.348;2024-01-10T12:21:08;100247.34;;;3.06;69.81
80308;BME280;69616;43.522;1.348;2024-01-10T12:23:37;100223.97;;;3.08;69.84
80308;BME280;69616;43.522;1.348;2024-01-10T12:26:05;100207.50;;;3.07;69.66
80308;BME280;69616;43.522;1.348;2024-01-10T12:28:33;100197.88;;;3.05;69.68
80308;BME280;69616;43.522;1.348;2024-01-10T12:30:59;100194.41;;;3.04;69.88
80308;BME280;69616;43.522;1.348;2024-01-10T12:33:25;100182.25;;;3.05;69.61
80308;BME280;69616;43.522;1.348;2024-01-10T12:36:06;100178.03;;;3.08;70.00
80308;BME280;69616;43.522;1.348;2024-01-10T12:38:33;100169.38;;;3.09;69.82
80308;BME280;69616;43.522;1.348;2024-01-10T12:40:58;100169.44;;;3.12;69.85
80308;BME280;69616;43.522;1.348;2024-01-10T12:43:24;100157.44;;;3.18;69.75
80308;BME280;69616;43.522;1.348;2024-01-10T12:46:09;100167.13;;;3.25;70.10
80308;BME280;69616;43.522;1.348;2024-01-10T12:48:39;100165.50;;;3.28;70.03
80308;BME280;69616;43.522;1.348;2024-01-10T12:51:09;100167.31;;;3.31;69.93
80308;BME280;69616;43.522;1.348;2024-01-10T12:53:38;100169.97;;;3.34;70.25
80308;BME280;69616;43.522;1.348;2024-01-10T12:56:05;100161.31;;;3.35;69.99
80308;BME280;69616;43.522;1.348;2024-01-10T12:58:32;100152.66;;;3.36;70.25
80308;BME280;69616;43.522;1.348;2024-01-10T13:01:00;100153.59;;;3.38;69.90
80308;BME280;69616;43.522;1.348;2024-01-10T13:03:26;100152.81;;;3.42;70.15
80308;BME280;69616;43.522;1.348;2024-01-10T13:05:51;100139.84;;;3.45;69.98